sensor_id;sensor_type;location;lat;lon;timestamp;temperature;humidity
8792;DHT22;4432;50.890;4.744;2023-04-01T00:00:20;10.00;99.90
8792;DHT22;4432;50.890;4.744;2023-04-01T00:02:46;10.00;99.90
8792;DHT22;4432;50.890;4.744;2023-04-01T00:05:14;10.00;99.90
8792;DHT22;4432;50.890;4.744;2023-04-01T00:07:40;10.00;99.90
8792;DHT22;4432;50.890;4.744;2023-04-01T00:10:07;10.00;99.90
8792;DHT22;4432;50.890;4.744;2023-04-01T00:12:34;10.00;99.90
8792;DHT22;4432;50.890;4.744;2023-04-01T00:15:00;10.00;99.90
8792;DHT22;4432;50.890;4.744;2023-04-01T00:17:26;10.00;99.90
8792;DHT22;4432;50.890;4.744;2023-04-01T00:19:54;10.00;99.90
8792;DHT22;4432;50.890;4.744;2023-04-01T00:22:20;10.00;99.90
8792;DHT22;4432;50.890;4.744;2023-04-01T00:24:47;10.00;99.90
8792;DHT22;4432;50.890;4.744;2023-04-01T00:27:13;10.00;99.90
8792;DHT22;4432;50.890;4.744;2023-04-01T00:29:42;10.00;99.90
8792;DHT22;4432;50.890;4.744;2023-04-01T00:32:08;10.00;99.90
8792;DHT22;4432;50.890;4.744;2023-04-01T00:34:34;10.00;99.90
8792;DHT22;4432;50.890;4.744;2023-04-01T00:37:00;10.00;99.90
8792;DHT22;4432;50.890;4.744;2023-04-01T00:39:28;10.00;99.90
8792;DHT22;4432;50.890;4.744;2023-04-01T00:41:54;10.00;99.90
8792;DHT22;4432;50.890;4.744;2023-04-01T00:44:25;10.00;99.90
8792;DHT22;4432;50.890;4.744;2023-04-01T00:46:51;10.00;99.90
8792;DHT22;4432;50.890;4.744;2023-04-01T00:49:20;10.10;99.90
8792;DHT22;4432;50.890;4.744;2023-04-01T00:51:49;10.00;99.90
8792;DHT22;4432;50.890;4.744;2023-04-01T00:54:17;10.00;99.90
8792;DHT22;4432;50.890;4.744;2023-04-01T00:59:25;10.00;99.90
8792;DHT22;4432;50.890;4.744;2023-04-01T01:01:51;10.00;99.90
8792;DHT22;4432;50.890;4.744;2023-04-01T01:04:25;10.00;99.90
8792;DHT22;4432;50.890;4.744;2023-04-01T01:10:31;9.90;99.90
8792;DHT22;4432;50.890;4.744;2023-04-01T01:15:25;9.90;99.90
8792;DHT22;4432;50.890;4.744;2023-04-01T01:26:13;9.90;99.90
8792;DHT22;4432;50.890;4.744;2023-04-01T01:34:10;9.90;99.90
8792;DHT22;4432;50.890;4.744;2023-04-01T01:36:38;10.00;99.90
8792;DHT22;4432;50.890;4.744;2023-04-01T01:39:07;10.00;99.90
8792;DHT22;4432;50.890;4.744;2023-04-01T01:41:35;9.90;99.90
8792;DHT22;4432;50.890;4.744;2023-04-01T01:44:03;9.90;99.90
8792;DHT22;4432;50.890;4.744;2023-04-01T01:46:31;9.90;99.90
8792;DHT22;4432;50.890;4.744;2023-04-01T01:48:57;9.90;99.90
8792;DHT22;4432;50.890;4.744;2023-04-01T01:51:26;9.90;99.90
8792;DHT22;4432;50.890;4.744;2023-04-01T01:53:53;9.90;99.90
8792;DHT22;4432;50.890;4.744;2023-04-01T01:56:22;9.90;99.90
8792;DHT22;4432;50.890;4.744;2023-04-01T01:58:56;9.90;99.90
8792;DHT22;4432;50.890;4.744;2023-04-01T02:01:25;10.00;99.90
8792;DHT22;4432;50.890;4.744;2023-04-01T02:03:53;10.00;99.90
8792;DHT22;4432;50.890;4.744;2023-04-01T02:06:23;10.00;99.90
8792;DHT22;4432;50.890;4.744;2023-04-01T02:08:55;9.90;99.90
8792;DHT22;4432;50.890;4.744;2023-04-01T02:14:18;10.00;99.90
8792;DHT22;4432;50.890;4.744;2023-04-01T02:17:23;9.90;99.90
8792;DHT22;4432;50.890;4.744;2023-04-01T02:22:14;9.90;99.90
8792;DHT22;4432;50.890;4.744;2023-04-01T02:24:42;9.90;99.90
8792;DHT22;4432;50.890;4.744;2023-04-01T02:27:12;9.90;99.90
8792;DHT22;4432;50.890;4.744;2023-04-01T02:29:38;9.90;99.90
8792;DHT22;4432;50.890;4.744;2023-04-01T02:32:05;9.90;99.90
8792;DHT22;4432;50.890;4.744;2023-04-01T02:34:31;9.80;99.90
8792;DHT22;4432;50.890;4.744;2023-04-01T02:36:58;9.80;99.90
8792;DHT22;4432;50.890;4.744;2023-04-01T02:39:24;9.80;99.90
8792;DHT22;4432;50.890;4.744;2023-04-01T02:41:51;9.80;99.90
8792;DHT22;4432;50.890;4.744;2023-04-01T02:44:17;9.70;99.90
8792;DHT22;4432;50.890;4.744;2023-04-01T02:46:44;9.70;99.90
8792;DHT22;4432;50.890;4.744;2023-04-01T02:49:10;9.70;99.90
8792;DHT22;4432;50.890;4.744;2023-04-01T02:51:36;9.70;99.90
8792;DHT22;4432;50.890;4.744;2023-04-01T02:54:02;9.80;99.90
8792;DHT22;4432;50.890;4.744;2023-04-01T02:56:28;9.70;99.90
8792;DHT22;4432;50.890;4.744;2023-04-01T02:58:54;9.70;99.90
8792;DHT22;4432;50.890;4.744;2023-04-01T03:01:20;9.70;99.90
8792;DHT22;4432;50.890;4.744;2023-04-01T03:03:46;9.70;99.90
8792;DHT22;4432;50.890;4.744;2023-04-01T03:06:14;9.70;99.90
8792;DHT22;4432;50.890;4.744;2023-04-01T03:08:40;9.70;99.90
8792;DHT22;4432;50.890;4.744;2023-04-01T03:11:06;9.70;99.90
8792;DHT22;4432;50.890;4.744;2023-04-01T03:13:32;9.70;99.90
8792;DHT22;4432;50.890;4.744;2023-04-01T03:15:58;9.70;99.90
8792;DHT22;4432;50.890;4.744;2023-04-01T03:18:24;9.70;99.90
8792;DHT22;4432;50.890;4.744;2023-04-01T03:20:50;9.70;99.90
8792;DHT22;4432;50.890;4.744;2023-04-01T03:23:16;9.70;99.90
8792;DHT22;4432;50.890;4.744;2023-04-01T03:25:45;9.70;99.90
8792;DHT22;4432;50.890;4.744;2023-04-01T03:28:11;9.70;99.90
8792;DHT22;4432;50.890;4.744;2023-04-01T03:30:37;9.70;99.90
8792;DHT22;4432;50.890;4.744;2023-04-01T03:33:03;9.70;99.90
8792;DHT22;4432;50.890;4.744;2023-04-01T03:35:29;9.70;99.90
8792;DHT22;4432;50.890;4.744;2023-04-01T03:37:55;9.70;99.90
8792;DHT22;4432;50.890;4.744;2023-04-01T03:40:22;9.70;99.90
8792;DHT22;4432;50.890;4.744;2023-04-01T03:42:48;9.70;99.90
8792;DHT22;4432;50.890;4.744;2023-04-01T03:45:15;9.70;99.90
8792;DHT22;4432;50.890;4.744;2023-04-01T03:47:41;9.70;99.90
8792;DHT22;4432;50.890;4.744;2023-04-01T03:50:07;9.70;99.90
8792;DHT22;4432;50.890;4.744;2023-04-01T03:52:34;9.70;99.90
8792;DHT22;4432;50.890;4.744;2023-04-01T03:55:01;9.70;99.90
8792;DHT22;4432;50.890;4.744;2023-04-01T03:57:26;9.70;99.90
8792;DHT22;4432;50.890;4.744;2023-04-01T03:59:52;9.70;99.90
8792;DHT22;4432;50.890;4.744;2023-04-01T04:02:18;9.70;99.90
8792;DHT22;4432;50.890;4.744;2023-04-01T04:04:44;9.70;99.90
8792;DHT22;4432;50.890;4.744;2023-04-01T04:07:12;9.70;99.90
8792;DHT22;4432;50.890;4.744;2023-04-01T04:09:37;9.70;99.90
8792;DHT22;4432;50.890;4.744;2023-04-01T04:12:04;9.70;99.90
8792;DHT22;4432;50.890;4.744;2023-04-01T04:14:31;9.70;99.90
8792;DHT22;4432;50.890;4.744;2023-04-01T04:16:57;9.70;99.90
8792;DHT22;4432;50.890;4.744;2023-04-01T04:19:23;9.70;99.90
8792;DHT22;4432;50.890;4.744;2023-04-01T04:21:48;9.70;99.90
8792;DHT22;4432;50.890;4.744;2023-04-01T04:24:14;9.70;99.90
8792;DHT22;4432;50.890;4.744;2023-04-01T04:26:40;9.70;99.90
8792;DHT22;4432;50.890;4.744;2023-04-01T04:29:06;9.70;99.90
8792;DHT22;4432;50.890;4.744;2023-04-01T04:31:32;9.70;99.90
8792;DHT22;4432;50.890;4.744;2023-04-01T04:33:59;9.70;99.90
8792;DHT22;4432;50.890;4.744;2023-04-01T04:36:26;9.70;99.90
8792;DHT22;4432;50.890;4.744;2023-04-01T04:38:52;9.70;99.90
8792;DHT22;4432;50.890;4.744;2023-04-01T04:41:19;9.70;99.90
8792;DHT22;4432;50.890;4.744;2023-04-01T04:43:54;9.70;99.90
8792;DHT22;4432;50.890;4.744;2023-04-01T04:46:20;9.70;99.90
8792;DHT22;4432;50.890;4.744;2023-04-01T04:48:46;9.70;99.90
8792;DHT22;4432;50.890;4.744;2023-04-01T04:51:16;9.60;99.90
8792;DHT22;4432;50.890;4.744;2023-04-01T04:53:43;9.60;99.90
8792;DHT22;4432;50.890;4.744;2023-04-01T04:56:09;9.60;99.90
8792;DHT22;4432;50.890;4.744;2023-04-01T04:58:35;9.60;99.90
8792;DHT22;4432;50.890;4.744;2023-04-01T05:01:11;9.70;99.90
8792;DHT22;4432;50.890;4.744;2023-04-01T05:03:37;9.60;99.90
8792;DHT22;4432;50.890;4.744;2023-04-01T05:06:04;9.60;99.90
8792;DHT22;4432;50.890;4.744;2023-04-01T05:08:30;9.60;99.90
8792;DHT22;4432;50.890;4.744;2023-04-01T05:10:56;9.60;99.90
8792;DHT22;4432;50.890;4.744;2023-04-01T05:13:22;9.70;99.90
8792;DHT22;4432;50.890;4.744;2023-04-01T05:15:47;9.70;99.90
8792;DHT22;4432;50.890;4.744;2023-04-01T05:18:13;9.60;99.90
8792;DHT22;4432;50.890;4.744;2023-04-01T05:20:39;9.70;99.90
8792;DHT22;4432;50.890;4.744;2023-04-01T05:23:05;9.60;99.90
8792;DHT22;4432;50.890;4.744;2023-04-01T05:25:30;9.60;99.90
8792;DHT22;4432;50.890;4.744;2023-04-01T05:27:56;9.60;99.90
8792;DHT22;4432;50.890;4.744;2023-04-01T05:30:22;9.60;99.90
8792;DHT22;4432;50.890;4.744;2023-04-01T05:32:48;9.60;99.90
8792;DHT22;4432;50.890;4.744;2023-04-01T05:35:13;9.60;99.90
8792;DHT22;4432;50.890;4.744;2023-04-01T05:37:39;9.60;99.90
8792;DHT22;4432;50.890;4.744;2023-04-01T05:40:06;9.60;99.90
8792;DHT22;4432;50.890;4.744;2023-04-01T05:42:32;9.70;99.90
8792;DHT22;4432;50.890;4.744;2023-04-01T05:44:58;9.60;99.90
8792;DHT22;4432;50.890;4.744;2023-04-01T05:47:24;9.70;99.90
8792;DHT22;4432;50.890;4.744;2023-04-01T05:49:50;9.60;99.90
8792;DHT22;4432;50.890;4.744;2023-04-01T05:52:15;9.70;99.90
8792;DHT22;4432;50.890;4.744;2023-04-01T05:54:41;9.70;99.90
8792;DHT22;4432;50.890;4.744;2023-04-01T05:57:07;9.70;99.90
8792;DHT22;4432;50.890;4.744;2023-04-01T05:59:33;9.70;99.90
8792;DHT22;4432;50.890;4.744;2023-04-01T06:02:00;9.70;99.90
8792;DHT22;4432;50.890;4.744;2023-04-01T06:04:28;9.70;99.90
8792;DHT22;4432;50.890;4.744;2023-04-01T06:06:58;9.70;99.90
8792;DHT22;4432;50.890;4.744;2023-04-01T06:09:29;9.70;99.90
8792;DHT22;4432;50.890;4.744;2023-04-01T06:43:36;9.70;99.90
8792;DHT22;4432;50.890;4.744;2023-04-01T06:46:23;9.70;99.90
8792;DHT22;4432;50.890;4.744;2023-04-01T06:55:02;9.80;99.90
8792;DHT22;4432;50.890;4.744;2023-04-01T06:57:35;9.80;99.90
8792;DHT22;4432;50.890;4.744;2023-04-01T07:00:13;9.70;99.90
8792;DHT22;4432;50.890;4.744;2023-04-01T07:02:52;9.70;99.90
8792;DHT22;4432;50.890;4.744;2023-04-01T07:05:21;9.70;99.90
8792;DHT22;4432;50.890;4.744;2023-04-01T07:07:52;9.70;99.90
8792;DHT22;4432;50.890;4.744;2023-04-01T07:13:06;9.70;99.90
8792;DHT22;4432;50.890;4.744;2023-04-01T07:15:41;9.70;99.90
8792;DHT22;4432;50.890;4.744;2023-04-01T07:18:22;9.70;99.90
8792;DHT22;4432;50.890;4.744;2023-04-01T07:20:49;9.70;99.90
8792;DHT22;4432;50.890;4.744;2023-04-01T07:23:26;9.80;99.90
8792;DHT22;4432;50.890;4.744;2023-04-01T07:26:03;9.80;99.90
8792;DHT22;4432;50.890;4.744;2023-04-01T07:28:32;9.80;99.90
8792;DHT22;4432;50.890;4.744;2023-04-01T07:31:33;9.80;99.90
8792;DHT22;4432;50.890;4.744;2023-04-01T07:34:25;9.70;99.90
8792;DHT22;4432;50.890;4.744;2023-04-01T07:36:53;9.70;99.90
8792;DHT22;4432;50.890;4.744;2023-04-01T07:45:34;9.80;99.90
8792;DHT22;4432;50.890;4.744;2023-04-01T07:48:19;9.80;99.90
8792;DHT22;4432;50.890;4.744;2023-04-01T07:51:01;9.80;99.90
8792;DHT22;4432;50.890;4.744;2023-04-01T08:06:47;10.00;99.90
8792;DHT22;4432;50.890;4.744;2023-04-01T08:17:39;10.20;99.90
8792;DHT22;4432;50.890;4.744;2023-04-01T08:22:57;10.20;99.90
8792;DHT22;4432;50.890;4.744;2023-04-01T08:25:28;10.30;99.90
8792;DHT22;4432;50.890;4.744;2023-04-01T08:28:17;10.20;99.90
8792;DHT22;4432;50.890;4.744;2023-04-01T08:33:26;10.10;99.90
8792;DHT22;4432;50.890;4.744;2023-04-01T08:36:02;10.10;99.90
8792;DHT22;4432;50.890;4.744;2023-04-01T08:38:41;10.10;99.90
8792;DHT22;4432;50.890;4.744;2023-04-01T09:00:30;10.20;99.90
8792;DHT22;4432;50.890;4.744;2023-04-01T09:11:06;10.30;99.90
8792;DHT22;4432;50.890;4.744;2023-04-01T09:14:00;10.40;99.90
8792;DHT22;4432;50.890;4.744;2023-04-01T09:16:41;10.40;99.90
8792;DHT22;4432;50.890;4.744;2023-04-01T09:22:42;10.60;99.90
8792;DHT22;4432;50.890;4.744;2023-04-01T09:28:24;10.60;99.90
8792;DHT22;4432;50.890;4.744;2023-04-01T09:39:37;10.80;99.90
8792;DHT22;4432;50.890;4.744;2023-04-01T09:42:45;10.80;99.90
8792;DHT22;4432;50.890;4.744;2023-04-01T09:45:30;10.70;99.90
8792;DHT22;4432;50.890;4.744;2023-04-01T09:48:09;10.70;99.90
8792;DHT22;4432;50.890;4.744;2023-04-01T09:54:39;10.50;99.90
8792;DHT22;4432;50.890;4.744;2023-04-01T10:36:48;11.60;99.90
8792;DHT22;4432;50.890;4.744;2023-04-01T10:47:57;12.20;99.90
8792;DHT22;4432;50.890;4.744;2023-04-01T10:53:27;12.40;99.90
8792;DHT22;4432;50.890;4.744;2023-04-01T11:14:52;12.30;99.90
8792;DHT22;4432;50.890;4.744;2023-04-01T11:20:28;12.10;99.90
8792;DHT22;4432;50.890;4.744;2023-04-01T11:31:26;11.50;99.90
8792;DHT22;4432;50.890;4.744;2023-04-01T11:40:15;11.20;99.90
8792;DHT22;4432;50.890;4.744;2023-04-01T11:42:42;11.10;99.90
8792;DHT22;4432;50.890;4.744;2023-04-01T11:51:39;11.10;99.90
8792;DHT22;4432;50.890;4.744;2023-04-01T12:10:55;11.30;99.90
8792;DHT22;4432;50.890;4.744;2023-04-01T12:13:47;11.50;99.90
8792;DHT22;4432;50.890;4.744;2023-04-01T12:16:37;11.70;99.90
8792;DHT22;4432;50.890;4.744;2023-04-01T12:19:15;11.70;99.90
8792;DHT22;4432;50.890;4.744;2023-04-01T12:35:08;12.10;99.90
8792;DHT22;4432;50.890;4.744;2023-04-01T12:38:14;12.00;99.90
8792;DHT22;4432;50.890;4.744;2023-04-01T12:41:13;12.10;99.90
8792;DHT22;4432;50.890;4.744;2023-04-01T12:44:04;12.10;99.90
8792;DHT22;4432;50.890;4.744;2023-04-01T12:46:57;11.80;99.90
8792;DHT22;4432;50.890;4.744;2023-04-01T13:01:02;11.10;99.90
8792;DHT22;4432;50.890;4.744;2023-04-01T13:06:36;11.00;99.90
8792;DHT22;4432;50.890;4.744;2023-04-01T13:21:18;11.10;99.90
8792;DHT22;4432;50.890;4.744;2023-04-01T13:42:57;11.00;99.90
8792;DHT22;4432;50.890;4.744;2023-04-01T14:11:25;11.10;99.90
8792;DHT22;4432;50.890;4.744;2023-04-01T14:22:25;11.00;99.90
8792;DHT22;4432;50.890;4.744;2023-04-01T14:25:17;10.90;99.90
8792;DHT22;4432;50.890;4.744;2023-04-01T14:49:36;11.70;99.90
8792;DHT22;4432;50.890;4.744;2023-04-01T14:52:30;11.80;99.90
8792;DHT22;4432;50.890;4.744;2023-04-01T14:54:58;11.80;99.90
8792;DHT22;4432;50.890;4.744;2023-04-01T14:57:25;11.80;99.90
8792;DHT22;4432;50.890;4.744;2023-04-01T15:02:59;11.90;99.90
8792;DHT22;4432;50.890;4.744;2023-04-01T15:08:35;12.00;99.90
8792;DHT22;4432;50.890;4.744;2023-04-01T15:14:21;12.00;99.90
8792;DHT22;4432;50.890;4.744;2023-04-01T15:30:34;11.20;99.90
8792;DHT22;4432;50.890;4.744;2023-04-01T15:36:04;11.00;99.90
8792;DHT22;4432;50.890;4.744;2023-04-01T15:41:39;10.70;99.90
8792;DHT22;4432;50.890;4.744;2023-04-01T15:46:57;10.60;99.90
8792;DHT22;4432;50.890;4.744;2023-04-01T16:09:01;10.40;99.90
8792;DHT22;4432;50.890;4.744;2023-04-01T16:22:55;10.50;99.90
8792;DHT22;4432;50.890;4.744;2023-04-01T16:25:39;10.50;99.90
8792;DHT22;4432;50.890;4.744;2023-04-01T16:47:29;10.00;99.90
8792;DHT22;4432;50.890;4.744;2023-04-01T16:50:05;9.90;99.90
8792;DHT22;4432;50.890;4.744;2023-04-01T16:52:59;10.00;99.90
8792;DHT22;4432;50.890;4.744;2023-04-01T16:58:26;9.90;99.90
8792;DHT22;4432;50.890;4.744;2023-04-01T17:00:59;9.80;99.90
8792;DHT22;4432;50.890;4.744;2023-04-01T17:03:30;9.80;99.90
8792;DHT22;4432;50.890;4.744;2023-04-01T17:11:39;9.70;99.90
8792;DHT22;4432;50.890;4.744;2023-04-01T17:16:54;9.60;99.90
8792;DHT22;4432;50.890;4.744;2023-04-01T17:19:41;9.70;99.90
8792;DHT22;4432;50.890;4.744;2023-04-01T17:27:51;9.60;99.90
8792;DHT22;4432;50.890;4.744;2023-04-01T17:30:35;9.60;99.90
8792;DHT22;4432;50.890;4.744;2023-04-01T17:58:29;9.50;99.90
8792;DHT22;4432;50.890;4.744;2023-04-01T18:01:21;9.50;99.90
8792;DHT22;4432;50.890;4.744;2023-04-01T18:18:37;9.40;99.90
8792;DHT22;4432;50.890;4.744;2023-04-01T18:23:59;9.50;99.90
8792;DHT22;4432;50.890;4.744;2023-04-01T18:26:31;9.40;99.90
8792;DHT22;4432;50.890;4.744;2023-04-01T18:31:48;9.40;99.90
8792;DHT22;4432;50.890;4.744;2023-04-01T18:36:55;9.40;99.90
8792;DHT22;4432;50.890;4.744;2023-04-01T18:39:33;9.40;99.90
8792;DHT22;4432;50.890;4.744;2023-04-01T18:47:43;9.40;99.90
8792;DHT22;4432;50.890;4.744;2023-04-01T18:50:27;9.40;99.90
8792;DHT22;4432;50.890;4.744;2023-04-01T18:53:27;9.40;99.90
8792;DHT22;4432;50.890;4.744;2023-04-01T18:56:06;9.40;99.90
8792;DHT22;4432;50.890;4.744;2023-04-01T19:01:39;9.40;99.90
8792;DHT22;4432;50.890;4.744;2023-04-01T19:06:54;9.40;99.90
8792;DHT22;4432;50.890;4.744;2023-04-01T19:10:07;9.40;99.90
8792;DHT22;4432;50.890;4.744;2023-04-01T19:14:54;9.40;99.90
8792;DHT22;4432;50.890;4.744;2023-04-01T19:17:58;9.40;99.90
8792;DHT22;4432;50.890;4.744;2023-04-01T19:20:42;9.40;99.90
8792;DHT22;4432;50.890;4.744;2023-04-01T19:23:31;9.40;99.90
8792;DHT22;4432;50.890;4.744;2023-04-01T19:26:01;9.40;99.90
8792;DHT22;4432;50.890;4.744;2023-04-01T19:43:06;9.30;99.90
8792;DHT22;4432;50.890;4.744;2023-04-01T19:48:00;9.30;99.90
8792;DHT22;4432;50.890;4.744;2023-04-01T19:50:51;9.20;99.90
8792;DHT22;4432;50.890;4.744;2023-04-01T19:53:37;9.30;99.90
8792;DHT22;4432;50.890;4.744;2023-04-01T19:56:16;9.20;99.90
8792;DHT22;4432;50.890;4.744;2023-04-01T20:01:30;9.20;99.90
8792;DHT22;4432;50.890;4.744;2023-04-01T20:04:03;9.20;99.90
8792;DHT22;4432;50.890;4.744;2023-04-01T20:09:40;9.20;99.90
8792;DHT22;4432;50.890;4.744;2023-04-01T20:14:53;9.20;99.90
8792;DHT22;4432;50.890;4.744;2023-04-01T20:27:58;9.30;99.90
8792;DHT22;4432;50.890;4.744;2023-04-01T20:30:44;9.30;99.90
8792;DHT22;4432;50.890;4.744;2023-04-01T20:36:16;9.30;99.90
8792;DHT22;4432;50.890;4.744;2023-04-01T20:39:19;9.30;99.90
8792;DHT22;4432;50.890;4.744;2023-04-01T20:50:34;9.40;99.90
8792;DHT22;4432;50.890;4.744;2023-04-01T20:53:20;9.40;99.90
8792;DHT22;4432;50.890;4.744;2023-04-01T21:17:37;9.60;99.90
8792;DHT22;4432;50.890;4.744;2023-04-01T21:26:09;9.70;99.90
8792;DHT22;4432;50.890;4.744;2023-04-01T21:31:40;9.80;99.90
8792;DHT22;4432;50.890;4.744;2023-04-01T21:45:38;9.90;99.90
8792;DHT22;4432;50.890;4.744;2023-04-01T21:48:19;9.80;99.90
8792;DHT22;4432;50.890;4.744;2023-04-01T21:51:13;9.80;99.90
8792;DHT22;4432;50.890;4.744;2023-04-01T22:05:41;9.70;99.90
8792;DHT22;4432;50.890;4.744;2023-04-01T22:25:50;9.70;99.90
8792;DHT22;4432;50.890;4.744;2023-04-01T22:28:39;9.70;99.90
8792;DHT22;4432;50.890;4.744;2023-04-01T22:31:05;9.70;99.90
8792;DHT22;4432;50.890;4.744;2023-04-01T22:33:53;9.70;99.90
8792;DHT22;4432;50.890;4.744;2023-04-01T22:42:10;9.50;99.90
8792;DHT22;4432;50.890;4.744;2023-04-01T22:44:52;9.50;99.90
8792;DHT22;4432;50.890;4.744;2023-04-01T22:47:47;9.50;99.90
8792;DHT22;4432;50.890;4.744;2023-04-01T22:50:24;9.50;99.90
8792;DHT22;4432;50.890;4.744;2023-04-01T22:55:44;9.40;99.90
8792;DHT22;4432;50.890;4.744;2023-04-01T22:58:53;9.40;99.90
8792;DHT22;4432;50.890;4.744;2023-04-01T23:01:18;9.40;99.90
8792;DHT22;4432;50.890;4.744;2023-04-01T23:03:46;9.40;99.90
8792;DHT22;4432;50.890;4.744;2023-04-01T23:06:38;9.40;99.90
8792;DHT22;4432;50.890;4.744;2023-04-01T23:09:17;9.40;99.90
8792;DHT22;4432;50.890;4.744;2023-04-01T23:22:12;9.40;99.90
8792;DHT22;4432;50.890;4.744;2023-04-01T23:29:59;9.30;99.90
8792;DHT22;4432;50.890;4.744;2023-04-01T23:32:25;9.20;99.90
8792;DHT22;4432;50.890;4.744;2023-04-01T23:35:01;9.20;99.90
8792;DHT22;4432;50.890;4.744;2023-04-01T23:37:27;9.10;99.90
8792;DHT22;4432;50.890;4.744;2023-04-01T23:39:57;9.10;99.90
8792;DHT22;4432;50.890;4.744;2023-04-01T23:42:32;9.10;99.90
8792;DHT22;4432;50.890;4.744;2023-04-01T23:45:10;9.10;99.90
8792;DHT22;4432;50.890;4.744;2023-04-01T23:47:39;9.10;99.90
8792;DHT22;4432;50.890;4.744;2023-04-01T23:52:43;9.10;99.90
8792;DHT22;4432;50.890;4.744;2023-04-01T23:55:23;9.00;99.90
